Time;durP1;ratioP1;P1;durP2;ratioP2;P2;SDS_P1;SDS_P2;PMS_P1;PMS_P2;Temp;Humidity;BMP_temperature;BMP_pressure;BME280_temperature;BME280_humidity;BME280_pressure;Samples;Min_cycle;Max_cycle;Signal;HPM_P1;HPM_P2
2022/05/31 00:04:55;;;;;;;3.50;1.60;;;22.40;58.50;;;;;;216115;1290;23925;-60
2022/05/31 00:09:58;;;;;;;4.70;1.60;;;22.40;58.80;;;;;;216206;1290;22583;-61
2022/05/31 00:15:04;;;;;;;4.40;1.40;;;22.30;58.40;;;;;;216242;1293;22577;-61
2022/05/31 00:20:10;;;;;;;3.00;1.50;;;22.30;58.40;;;;;;216309;1293;24342;-61
2022/05/31 00:25:15;;;;;;;3.80;1.50;;;22.30;58.20;;;;;;216328;1290;25242;-58
2022/05/31 00:30:19;;;;;;;3.60;1.60;;;22.30;58.40;;;;;;216238;1290;25458;-59
2022/05/31 00:35:27;;;;;;;3.90;1.60;;;22.30;58.30;;;;;;216409;1290;23951;-60
2022/05/31 00:40:33;;;;;;;3.70;1.70;;;22.20;58.60;;;;;;216430;1290;22602;-61
2022/05/31 00:45:39;;;;;;;4.00;1.60;;;22.20;58.00;;;;;;216276;1290;26523;-60
2022/05/31 00:50:48;;;;;;;4.20;1.50;;;22.20;58.20;;;;;;216313;1290;22588;-59
2022/05/31 00:56:10;;;;;;;6.00;1.70;;;22.20;58.10;;;;;;216094;1290;22598;-60
2022/05/31 01:01:30;;;;;;;4.40;1.70;;;22.20;58.20;;;;;;216467;1289;22606;-62
2022/05/31 01:06:43;;;;;;;3.80;1.90;;;22.20;58.20;;;;;;216138;1290;24338;-60
2022/05/31 01:11:48;;;;;;;7.10;2.00;;;22.10;58.00;;;;;;216195;1290;22576;-60
2022/05/31 01:17:18;;;;;;;4.70;1.50;;;22.10;57.90;;;;;;216059;1291;24243;-59
2022/05/31 01:23:28;;;;;;;4.80;1.70;;;22.10;58.30;;;;;;215890;1290;22690;-61
2022/05/31 01:28:54;;;;;;;3.90;1.50;;;22.10;58.00;;;;;;215788;1290;22667;-60
2022/05/31 01:33:58;;;;;;;3.50;1.30;;;22.10;58.20;;;;;;216357;1290;24482;-60
2022/05/31 01:39:05;;;;;;;3.30;1.30;;;22.10;57.90;;;;;;216228;1290;25397;-62
2022/05/31 01:44:13;;;;;;;2.30;1.20;;;22.10;57.90;;;;;;216256;1291;22562;-60
2022/05/31 01:49:17;;;;;;;2.80;1.30;;;22.10;58.00;;;;;;215664;1293;22586;-61
2022/05/31 01:54:21;;;;;;;3.50;1.70;;;22.00;57.90;;;;;;216219;1291;23112;-60
2022/05/31 01:59:29;;;;;;;4.30;1.80;;;22.00;57.80;;;;;;216333;1293;22582;-60
2022/05/31 02:04:33;;;;;;;3.20;1.40;;;21.90;57.80;;;;;;216226;1290;24226;-62
2022/05/31 02:09:39;;;;;;;4.20;1.50;;;22.00;57.80;;;;;;216502;1291;25374;-61
2022/05/31 02:14:45;;;;;;;3.80;1.70;;;22.00;57.80;;;;;;216269;1290;26587;-59
2022/05/31 02:19:49;;;;;;;2.30;1.30;;;22.00;57.80;;;;;;216380;1290;25170;-61
2022/05/31 02:25:03;;;;;;;2.80;1.50;;;22.00;57.70;;;;;;216405;1290;25347;-60
2022/05/31 02:30:07;;;;;;;3.30;1.50;;;21.90;57.50;;;;;;216252;1290;26554;-56
2022/05/31 02:35:12;;;;;;;2.80;1.60;;;21.90;57.70;;;;;;216252;1290;22586;-61
2022/05/31 02:40:16;;;;;;;3.40;1.60;;;21.90;57.60;;;;;;216233;1290;26524;-60
2022/05/31 02:45:20;;;;;;;4.80;1.50;;;21.90;57.50;;;;;;216144;1290;22569;-61
2022/05/31 02:50:24;;;;;;;3.70;1.60;;;21.80;57.60;;;;;;216310;1290;24221;-58
2022/05/31 02:55:29;;;;;;;2.60;1.30;;;21.80;57.50;;;;;;216226;1290;24148;-59
2022/05/31 03:01:23;;;;;;;3.00;1.50;;;21.80;57.70;;;;;;215417;1291;22554;-60
2022/05/31 03:06:48;;;;;;;3.70;1.70;;;21.80;57.50;;;;;;216151;1290;25366;-60
2022/05/31 03:11:57;;;;;;;4.90;1.90;;;21.80;57.40;;;;;;216216;1290;26532;-59
2022/05/31 03:17:09;;;;;;;4.10;1.50;;;21.80;57.70;;;;;;216146;1293;24435;-60
2022/05/31 03:22:20;;;;;;;5.20;2.10;;;21.80;57.40;;;;;;216251;1293;25273;-63
2022/05/31 03:27:27;;;;;;;3.20;1.60;;;21.70;57.30;;;;;;216287;1290;22582;-62
2022/05/31 03:32:35;;;;;;;5.20;2.20;;;21.70;58.00;;;;;;216240;1291;22662;-60
2022/05/31 03:37:48;;;;;;;3.60;1.50;;;21.70;57.70;;;;;;216241;1290;22595;-60
2022/05/31 03:43:31;;;;;;;4.00;1.80;;;21.70;57.50;;;;;;216105;1291;26523;-58
2022/05/31 03:49:04;;;;;;;3.10;1.60;;;21.70;57.70;;;;;;216337;1290;24427;-63
2022/05/31 03:54:36;;;;;;;3.20;1.70;;;21.70;57.30;;;;;;215835;1293;22720;-62
2022/05/31 03:59:40;;;;;;;3.10;1.70;;;21.70;57.40;;;;;;216517;1290;24292;-58
2022/05/31 04:04:43;;;;;;;2.70;1.40;;;21.60;57.30;;;;;;216315;1291;26522;-60
2022/05/31 04:09:48;;;;;;;3.60;1.70;;;21.70;57.50;;;;;;216184;1294;22573;-54
2022/05/31 04:14:53;;;;;;;3.40;1.70;;;21.70;57.40;;;;;;216246;1290;25319;-62
2022/05/31 04:20:00;;;;;;;4.80;1.80;;;21.70;57.70;;;;;;215815;1293;22650;-61
2022/05/31 04:25:05;;;;;;;6.10;2.10;;;21.60;57.30;;;;;;216204;1290;25355;-59
2022/05/31 04:30:27;;;;;;;3.50;1.60;;;21.60;57.60;;;;;;216639;1290;22746;-62
2022/05/31 04:36:12;;;;;;;4.40;1.80;;;21.60;57.40;;;;;;215950;1290;24323;-61
2022/05/31 04:41:19;;;;;;;3.70;1.90;;;21.60;57.70;;;;;;216500;1290;22561;-59
2022/05/31 04:46:37;;;;;;;4.40;1.70;;;21.60;57.40;;;;;;216009;1291;23018;-61
2022/05/31 04:52:00;;;;;;;3.00;1.50;;;21.60;57.40;;;;;;216182;1290;22568;-62
2022/05/31 04:57:09;;;;;;;4.70;1.50;;;21.60;57.40;;;;;;216071;1293;25330;-62
2022/05/31 05:02:12;;;;;;;2.50;1.50;;;21.60;57.80;;;;;;216456;1291;22759;-60
2022/05/31 05:07:22;;;;;;;9.70;1.70;;;21.70;57.40;;;;;;216350;1290;22585;-64
2022/05/31 05:12:26;;;;;;;7.30;1.70;;;21.70;57.70;;;;;;216648;1290;22597;-59
2022/05/31 05:17:40;;;;;;;4.30;2.50;;;21.70;58.10;;;;;;216535;1290;22560;-61
2022/05/31 05:22:44;;;;;;;8.40;1.80;;;21.80;58.40;;;;;;216231;1290;24523;-61
2022/05/31 05:27:49;;;;;;;7.00;2.00;;;21.80;58.80;;;;;;216885;1290;24340;-59
2022/05/31 05:33:01;;;;;;;10.60;2.20;;;21.90;59.80;;;;;;216323;1290;24405;-59
2022/05/31 05:38:08;;;;;;;8.80;1.90;;;21.90;60.30;;;;;;216209;1290;23979;-56
2022/05/31 05:43:32;;;;;;;7.10;2.20;;;22.00;60.70;;;;;;216176;1290;22576;-62
2022/05/31 05:48:40;;;;;;;10.60;2.10;;;22.00;60.50;;;;;;216160;1293;22588;-60
2022/05/31 05:53:44;;;;;;;5.70;2.00;;;22.10;60.10;;;;;;216462;1290;24255;-60
2022/05/31 05:59:08;;;;;;;11.70;3.80;;;22.00;60.10;;;;;;216150;1290;22599;-58
2022/05/31 06:04:41;;;;;;;11.80;4.20;;;21.90;60.00;;;;;;216088;1290;22569;-59
2022/05/31 06:09:59;;;;;;;7.70;3.50;;;21.80;55.70;;;;;;216342;1290;22582;-61
2022/05/31 06:15:08;;;;;;;8.00;3.80;;;21.80;55.50;;;;;;216426;1291;22586;-60
2022/05/31 06:20:15;;;;;;;7.90;3.10;;;21.80;54.00;;;;;;216262;1294;22589;-59
2022/05/31 06:25:20;;;;;;;11.60;3.70;;;21.80;55.30;;;;;;216057;1293;22578;-60
2022/05/31 06:30:37;;;;;;;9.60;3.20;;;21.80;55.00;;;;;;216437;1290;24060;-57
2022/05/31 06:35:41;;;;;;;9.30;2.70;;;21.80;55.30;;;;;;216493;1291;22600;-59
2022/05/31 06:40:47;;;;;;;8.90;2.60;;;21.80;55.30;;;;;;216194;1294;25276;-57
2022/05/31 06:46:04;;;;;;;6.50;3.30;;;21.80;55.50;;;;;;216155;1291;22653;-57
2022/05/31 06:57:11;;;;;;;5.60;2.50;;;21.80;55.60;;;;;;215985;1290;22735;-58
2022/05/31 07:02:20;;;;;;;6.60;2.80;;;21.90;55.80;;;;;;216233;1291;24291;-59
2022/05/31 07:07:28;;;;;;;6.20;3.30;;;21.90;56.20;;;;;;216340;1290;24424;-60
2022/05/31 07:12:35;;;;;;;5.40;2.40;;;21.90;56.00;;;;;;216344;1290;24324;-61
2022/05/31 07:18:05;;;;;;;6.10;2.90;;;21.90;56.00;;;;;;216236;1290;25270;-58
2022/05/31 07:23:09;;;;;;;6.10;2.30;;;22.00;56.10;;;;;;216314;1290;284499;-57
2022/05/31 07:28:20;;;;;;;9.40;3.10;;;22.00;56.40;;;;;;216200;1293;22515;-59
2022/05/31 07:33:27;;;;;;;5.40;2.50;;;22.00;56.10;;;;;;216063;1291;22580;-57
2022/05/31 07:38:44;;;;;;;5.90;2.40;;;22.00;56.20;;;;;;216299;1290;24295;-55
2022/05/31 07:43:48;;;;;;;5.50;2.80;;;22.10;56.50;;;;;;216110;1291;22694;-59
2022/05/31 07:48:53;;;;;;;5.70;2.80;;;22.10;56.10;;;;;;216256;1291;22660;-59
2022/05/31 07:54:17;;;;;;;4.90;2.40;;;22.10;56.40;;;;;;216149;1291;23417;-58
2022/05/31 07:59:48;;;;;;;7.00;2.40;;;22.10;55.90;;;;;;215905;1291;24383;-59
2022/05/31 08:05:12;;;;;;;5.70;2.60;;;22.10;55.90;;;;;;216455;1290;22661;-60
2022/05/31 08:10:17;;;;;;;7.10;2.60;;;22.20;56.30;;;;;;216315;1290;22582;-57
2022/05/31 08:15:21;;;;;;;11.20;3.10;;;22.20;55.90;;;;;;216182;1294;25581;-60
2022/05/31 08:20:24;;;;;;;5.10;2.10;;;22.20;55.90;;;;;;216228;1291;22588;-58
2022/05/31 08:25:28;;;;;;;6.50;2.70;;;22.20;56.00;;;;;;216281;1291;23955;-59
2022/05/31 08:30:33;;;;;;;7.10;2.40;;;22.20;56.10;;;;;;215609;1294;22575;-60
2022/05/31 08:35:41;;;;;;;21.10;9.40;;;22.30;56.30;;;;;;216406;1291;24312;-58
2022/05/31 08:41:30;;;;;;;31.50;9.10;;;22.30;56.50;;;;;;216373;1290;24375;-59
2022/05/31 08:46:59;;;;;;;20.00;5.60;;;22.40;56.90;;;;;;216274;1293;23084;-57
2022/05/31 08:52:11;;;;;;;14.60;5.10;;;22.40;56.90;;;;;;216307;1290;25278;-58
2022/05/31 08:57:40;;;;;;;12.30;4.90;;;22.40;56.80;;;;;;216231;1291;25378;-58
2022/05/31 09:02:52;;;;;;;9.00;4.50;;;22.40;56.70;;;;;;216233;1291;24348;-59
2022/05/31 09:08:08;;;;;;;14.50;4.80;;;22.50;56.60;;;;;;216230;1291;22560;-59
2022/05/31 09:13:26;;;;;;;9.20;4.00;;;22.40;56.40;;;;;;216419;1290;22651;-59
2022/05/31 09:18:42;;;;;;;9.10;4.60;;;22.40;55.90;;;;;;216258;1291;23976;-58
2022/05/31 09:23:46;;;;;;;10.30;4.40;;;22.50;55.90;;;;;;216333;1291;24487;-57
2022/05/31 09:29:08;;;;;;;15.80;5.00;;;22.50;55.70;;;;;;216231;1294;22639;-58
2022/05/31 09:34:35;;;;;;;8.20;3.90;;;22.50;55.70;;;;;;216387;1290;24314;-58
2022/05/31 09:40:21;;;;;;;10.30;3.90;;;22.50;55.50;;;;;;216094;1293;26579;-58
2022/05/31 09:45:49;;;;;;;9.20;3.90;;;22.60;56.20;;;;;;216800;1290;24220;-58
2022/05/31 09:51:24;;;;;;;9.10;3.90;;;22.60;55.30;;;;;;216417;1290;25354;-59
2022/05/31 10:02:30;;;;;;;7.70;3.80;;;22.60;55.40;;;;;;216397;1290;24257;-58
2022/05/31 10:07:37;;;;;;;8.00;3.80;;;22.70;55.40;;;;;;216353;1290;22588;-62
2022/05/31 10:12:52;;;;;;;7.20;3.40;;;22.60;55.20;;;;;;216294;1293;22582;-58
2022/05/31 10:18:04;;;;;;;10.50;3.90;;;22.70;55.20;;;;;;215888;1293;22592;-59
2022/05/31 10:23:15;;;;;;;9.50;3.80;;;22.70;55.30;;;;;;216253;1291;22885;-57
2022/05/31 10:28:42;;;;;;;9.60;3.60;;;22.70;56.00;;;;;;216222;1290;23000;-59
2022/05/31 10:33:58;;;;;;;7.30;3.60;;;22.80;55.60;;;;;;216206;1293;22602;-58
2022/05/31 10:39:10;;;;;;;7.10;3.50;;;22.70;55.60;;;;;;216292;1290;24337;-59
2022/05/31 10:44:36;;;;;;;6.40;3.60;;;22.80;55.30;;;;;;216564;1290;22726;-58
2022/05/31 10:49:41;;;;;;;7.10;3.50;;;22.80;55.20;;;;;;216230;1293;25333;-58
2022/05/31 10:55:10;;;;;;;6.60;3.00;;;22.90;55.70;;;;;;216491;1290;24503;-57
2022/05/31 11:00:29;;;;;;;4.80;2.90;;;22.90;55.30;;;;;;216191;1294;25400;-60
2022/05/31 11:05:52;;;;;;;6.80;3.30;;;22.90;55.30;;;;;;216257;1290;22566;-62
2022/05/31 11:17:11;;;;;;;6.30;3.50;;;22.90;55.00;;;;;;216248;1290;23948;-60
2022/05/31 11:22:33;;;;;;;5.50;3.00;;;23.00;55.60;;;;;;216239;1290;22748;-59
2022/05/31 11:27:52;;;;;;;7.60;3.20;;;23.00;55.30;;;;;;216118;1293;25515;-57
2022/05/31 11:33:08;;;;;;;4.80;2.90;;;23.00;55.20;;;;;;216330;1290;23947;-58
2022/05/31 11:38:20;;;;;;;5.60;3.20;;;23.00;55.50;;;;;;216261;1290;22743;-57
2022/05/31 11:43:42;;;;;;;5.20;2.80;;;23.10;55.20;;;;;;216231;1291;22803;-61
2022/05/31 11:48:56;;;;;;;7.70;3.10;;;23.00;55.20;;;;;;216066;1291;22623;-59
2022/05/31 11:54:33;;;;;;;5.10;2.90;;;23.10;55.10;;;;;;215981;1294;23344;-57
2022/05/31 12:00:02;;;;;;;5.30;3.10;;;23.10;55.20;;;;;;216204;1290;22667;-58
2022/05/31 12:05:38;;;;;;;5.30;3.00;;;23.10;55.10;;;;;;216195;1290;24254;-58
2022/05/31 12:10:49;;;;;;;5.90;3.20;;;23.10;55.10;;;;;;216394;1290;24332;-60
2022/05/31 12:15:57;;;;;;;6.10;3.30;;;23.20;55.20;;;;;;215958;1293;23232;-58
2022/05/31 12:21:19;;;;;;;7.00;3.10;;;23.20;55.10;;;;;;216233;1290;22554;-57
2022/05/31 12:26:28;;;;;;;6.80;3.00;;;23.20;55.00;;;;;;216373;1291;22725;-60
2022/05/31 12:31:44;;;;;;;7.20;2.60;;;23.20;54.90;;;;;;216359;1290;25439;-58
2022/05/31 12:37:17;;;;;;;7.10;2.80;;;23.30;55.30;;;;;;216104;1291;24466;-58
2022/05/31 12:42:27;;;;;;;4.50;2.50;;;23.30;54.90;;;;;;216586;1290;22561;-59
2022/05/31 12:47:33;;;;;;;4.50;2.70;;;23.20;54.90;;;;;;216231;1290;24159;-59
2022/05/31 12:58:31;;;;;;;5.20;2.60;;;23.30;54.90;;;;;;216224;1290;24465;-57
2022/05/31 13:03:40;;;;;;;7.10;3.70;;;23.30;54.80;;;;;;216230;1290;24252;-58
2022/05/31 13:09:01;;;;;;;4.60;3.00;;;23.30;53.80;;;;;;216319;1290;26805;-58
2022/05/31 13:19:58;;;;;;;5.70;3.40;;;23.30;53.90;;;;;;216589;1290;22598;-57
2022/05/31 13:25:14;;;;;;;4.90;2.80;;;23.30;53.80;;;;;;217557;1290;25023;-57
2022/05/31 13:30:22;;;;;;;6.70;3.10;;;23.30;53.80;;;;;;216323;1290;22634;-58
2022/05/31 13:35:32;;;;;;;5.70;3.20;;;23.30;53.60;;;;;;216195;1290;22849;-58
2022/05/31 13:40:44;;;;;;;6.60;3.20;;;23.30;53.70;;;;;;216208;1290;22686;-58
2022/05/31 13:45:55;;;;;;;6.40;3.40;;;23.30;53.60;;;;;;216196;1291;24571;-61
2022/05/31 13:51:12;;;;;;;5.80;3.30;;;23.30;53.10;;;;;;216056;1293;24334;-61
2022/05/31 13:56:21;;;;;;;6.90;3.20;;;23.20;53.00;;;;;;216348;1290;22583;-57
2022/05/31 14:01:38;;;;;;;6.20;2.80;;;23.30;53.00;;;;;;216377;1290;25520;-58
2022/05/31 14:06:51;;;;;;;5.90;3.20;;;23.30;52.80;;;;;;216278;1290;24483;-58
2022/05/31 14:12:03;;;;;;;4.50;3.00;;;23.30;52.60;;;;;;216148;1290;25527;-56
2022/05/31 14:17:11;;;;;;;5.60;3.10;;;23.30;52.60;;;;;;216337;1290;24283;-60
2022/05/31 14:22:38;;;;;;;4.70;2.70;;;23.30;52.50;;;;;;216133;1290;22789;-57
2022/05/31 14:27:46;;;;;;;5.40;2.50;;;23.30;52.20;;;;;;216284;1290;22623;-57
2022/05/31 14:33:02;;;;;;;7.20;3.40;;;23.30;52.70;;;;;;216395;1290;24322;-58
2022/05/31 14:38:17;;;;;;;7.20;3.40;;;23.40;53.90;;;;;;216300;1290;25366;-55
2022/05/31 14:43:49;;;;;;;6.00;2.60;;;23.40;52.70;;;;;;216374;1290;22737;-57
2022/05/31 14:49:06;;;;;;;3.60;2.30;;;23.40;53.60;;;;;;215793;1291;24288;-59
2022/05/31 14:54:37;;;;;;;5.70;2.50;;;23.40;54.00;;;;;;216046;1291;22621;-58
2022/05/31 14:59:41;;;;;;;4.20;2.80;;;23.50;54.40;;;;;;216132;1290;25608;-57
2022/05/31 15:04:51;;;;;;;4.90;2.40;;;23.50;54.30;;;;;;216151;1291;25283;-59
2022/05/31 15:10:32;;;;;;;5.10;2.80;;;23.50;53.60;;;;;;216209;1290;22513;-57
2022/05/31 15:18:56;;;;;;;3.50;2.40;;;23.50;53.50;;;;;;215843;1290;24293;-59
2022/05/31 15:21:28;;;;;;;4.60;2.60;;;23.50;53.30;;;;;;216240;1293;24350;-59
2022/05/31 15:26:33;;;;;;;4.90;2.60;;;23.50;53.30;;;;;;216458;1291;22599;-56
2022/05/31 15:31:41;;;;;;;4.30;2.30;;;23.50;52.90;;;;;;216180;1291;23958;-56
2022/05/31 15:37:11;;;;;;;4.90;2.90;;;23.50;53.10;;;;;;216340;1290;25615;-58
2022/05/31 15:42:24;;;;;;;6.30;2.30;;;23.50;53.10;;;;;;216321;1290;22651;-58
2022/05/31 15:47:31;;;;;;;4.90;2.30;;;23.50;53.30;;;;;;216286;1290;24411;-59
2022/05/31 15:52:42;;;;;;;6.90;3.10;;;23.50;52.70;;;;;;216399;1290;22566;-57
2022/05/31 15:58:07;;;;;;;5.60;2.80;;;23.50;52.90;;;;;;216376;1290;22595;-61
2022/05/31 16:03:11;;;;;;;9.60;2.50;;;23.50;53.30;;;;;;216292;1290;24273;-60
2022/05/31 16:08:22;;;;;;;9.30;2.80;;;23.60;52.40;;;;;;216136;1290;24262;-59
2022/05/31 16:13:38;;;;;;;9.20;2.70;;;23.70;53.10;;;;;;215900;1292;23196;-57
2022/05/31 16:18:51;;;;;;;7.50;2.20;;;23.70;52.90;;;;;;216119;1290;22754;-59
2022/05/31 16:23:55;;;;;;;9.30;2.40;;;23.80;52.80;;;;;;215885;1290;22668;-60
2022/05/31 16:29:00;;;;;;;4.50;2.10;;;23.80;52.90;;;;;;215995;1290;22588;-59
2022/05/31 16:34:11;;;;;;;8.50;2.50;;;23.80;52.70;;;;;;215920;1290;24999;-58
2022/05/31 16:44:58;;;;;;;6.00;2.40;;;23.80;52.60;;;;;;216082;1290;24089;-59
2022/05/31 16:50:05;;;;;;;14.70;3.10;;;23.80;52.70;;;;;;216172;1290;24700;-58
2022/05/31 16:55:31;;;;;;;9.90;2.60;;;23.70;52.50;;;;;;216011;1290;22557;-60
2022/05/31 17:00:59;;;;;;;5.70;2.00;;;23.70;52.60;;;;;;215669;1291;22691;-61
2022/05/31 17:06:07;;;;;;;9.00;2.70;;;23.70;52.60;;;;;;216210;1291;24224;-61
2022/05/31 17:14:22;;;;;;;6.70;2.50;;;23.70;53.00;;;;;;216262;1291;24495;-62
2022/05/31 17:16:35;;;;;;;8.30;2.60;;;23.70;52.80;;;;;;216312;1290;24303;-61
2022/05/31 17:21:42;;;;;;;6.90;2.20;;;23.70;53.70;;;;;;216161;1290;22584;-63
2022/05/31 17:26:47;;;;;;;8.70;2.40;;;23.70;53.60;;;;;;216204;1291;22680;-63
2022/05/31 17:31:52;;;;;;;5.20;1.90;;;23.70;53.50;;;;;;216552;1290;25456;-60
2022/05/31 17:36:56;;;;;;;6.60;2.00;;;23.70;53.90;;;;;;216428;1290;22801;-61
2022/05/31 17:42:01;;;;;;;10.80;2.40;;;23.80;53.30;;;;;;215944;1290;25523;-60
2022/05/31 17:47:05;;;;;;;5.60;2.20;;;23.80;53.10;;;;;;215588;1293;25595;-59
2022/05/31 17:52:09;;;;;;;7.80;2.20;;;23.70;53.40;;;;;;216013;1290;22581;-60
2022/05/31 17:57:13;;;;;;;16.30;2.70;;;23.70;53.70;;;;;;215893;1290;22708;-60
2022/05/31 18:02:20;;;;;;;13.40;2.60;;;23.70;53.90;;;;;;216221;1290;26557;-60
2022/05/31 18:07:27;;;;;;;7.30;2.20;;;23.70;53.60;;;;;;216161;1293;23942;-62
2022/05/31 18:12:50;;;;;;;4.40;2.10;;;23.80;53.60;;;;;;216413;1290;24449;-58
2022/05/31 18:17:54;;;;;;;6.40;2.30;;;23.70;53.10;;;;;;216506;1290;22569;-60
2022/05/31 18:23:05;;;;;;;8.60;2.20;;;23.70;53.00;;;;;;216379;1290;24190;-60
2022/05/31 18:33:57;;;;;;;5.50;1.80;;;23.80;52.40;;;;;;216175;1291;22582;-60
2022/05/31 18:40:21;;;;;;;4.80;2.20;;;23.80;51.80;;;;;;216401;1290;26556;-61
2022/05/31 18:44:34;;;;;;;4.80;1.90;;;23.80;51.70;;;;;;216187;1290;22789;-59
2022/05/31 18:49:40;;;;;;;7.30;2.20;;;23.80;51.60;;;;;;215762;1291;24308;-60
2022/05/31 18:54:45;;;;;;;7.50;2.20;;;23.80;51.50;;;;;;216293;1290;22662;-60
2022/05/31 18:59:50;;;;;;;8.50;2.90;;;23.80;51.40;;;;;;215977;1290;22583;-58
2022/05/31 19:04:56;;;;;;;12.10;2.60;;;23.80;50.60;;;;;;216675;1290;25583;-58
2022/05/31 19:10:04;;;;;;;13.70;2.70;;;23.80;51.70;;;;;;216481;1290;22721;-61
2022/05/31 19:15:13;;;;;;;6.20;2.30;;;23.80;51.90;;;;;;216132;1290;24451;-59
2022/05/31 19:20:21;;;;;;;4.30;2.10;;;23.80;51.60;;;;;;215927;1290;457734;-60
2022/05/31 19:25:28;;;;;;;11.70;2.50;;;23.80;52.40;;;;;;215952;1290;26531;-59
2022/05/31 19:30:39;;;;;;;7.10;2.40;;;23.70;51.80;;;;;;216029;1291;24251;-59
2022/05/31 19:35:45;;;;;;;11.00;2.50;;;23.70;52.30;;;;;;216250;1290;24608;-59
2022/05/31 19:40:49;;;;;;;12.30;2.50;;;23.70;52.30;;;;;;215713;1293;25367;-63
2022/05/31 19:45:52;;;;;;;10.60;2.90;;;23.70;52.80;;;;;;216128;1290;24291;-60
2022/05/31 19:51:01;;;;;;;11.70;3.10;;;23.70;52.80;;;;;;216409;1290;24281;-57
2022/05/31 19:56:05;;;;;;;8.00;2.70;;;23.60;52.60;;;;;;216258;1291;24338;-57
2022/05/31 20:01:11;;;;;;;8.10;3.10;;;23.70;52.60;;;;;;216086;1290;25751;-57
2022/05/31 20:06:19;;;;;;;14.00;4.20;;;23.60;53.00;;;;;;215518;1293;22605;-58
2022/05/31 20:11:23;;;;;;;12.40;4.30;;;23.60;53.20;;;;;;216031;1292;25631;-56
2022/05/31 20:16:35;;;;;;;12.20;4.50;;;23.60;53.30;;;;;;216331;1290;25252;-58
2022/05/31 20:21:48;;;;;;;9.70;3.90;;;23.60;53.80;;;;;;216111;1293;25671;-60
2022/05/31 20:26:57;;;;;;;14.50;4.40;;;23.60;53.50;;;;;;216196;1290;25279;-59
2022/05/31 20:32:02;;;;;;;12.20;4.30;;;23.60;53.50;;;;;;216149;1290;22598;-59
2022/05/31 20:37:12;;;;;;;10.70;4.10;;;23.60;53.80;;;;;;216362;1291;22666;-58
2022/05/31 20:42:34;;;;;;;10.30;4.00;;;23.60;53.80;;;;;;216217;1290;22609;-58
2022/05/31 20:47:42;;;;;;;10.70;3.80;;;23.50;53.90;;;;;;216199;1291;24351;-59
2022/05/31 20:52:54;;;;;;;11.70;4.60;;;23.50;54.10;;;;;;216239;1290;25550;-57
2022/05/31 20:57:58;;;;;;;13.30;4.90;;;23.50;54.20;;;;;;216235;1290;25665;-58
2022/05/31 21:03:02;;;;;;;14.90;5.20;;;23.50;54.40;;;;;;216245;1291;25564;-58
2022/05/31 21:08:07;;;;;;;14.90;4.90;;;23.60;56.90;;;;;;216322;1291;25456;-55
2022/05/31 21:13:20;;;;;;;17.80;5.10;;;23.60;58.80;;;;;;216068;1291;22586;-59
2022/05/31 21:18:25;;;;;;;13.60;5.10;;;23.70;60.60;;;;;;216023;1291;22589;-58
2022/05/31 21:23:38;;;;;;;18.10;5.10;;;23.60;59.80;;;;;;215993;1291;25641;-59
2022/05/31 21:28:42;;;;;;;19.20;5.10;;;23.60;59.70;;;;;;216242;1290;22558;-58
2022/05/31 21:33:46;;;;;;;14.70;4.80;;;23.60;60.30;;;;;;216174;1290;22650;-57
2022/05/31 21:44:18;;;;;;;13.00;5.40;;;23.60;60.10;;;;;;215785;1290;24295;-59
2022/05/31 21:49:22;;;;;;;19.00;5.20;;;23.60;60.00;;;;;;215843;1293;22724;-59
2022/05/31 21:54:29;;;;;;;14.40;5.40;;;23.50;60.30;;;;;;216214;1290;24249;-57
2022/05/31 21:59:35;;;;;;;13.20;4.50;;;23.50;59.90;;;;;;216060;1290;22560;-59
2022/05/31 22:04:45;;;;;;;12.70;5.00;;;23.50;59.80;;;;;;216191;1290;22668;-56
2022/05/31 22:09:50;;;;;;;11.90;4.40;;;23.50;59.70;;;;;;216022;1291;25557;-59
2022/05/31 22:14:54;;;;;;;14.30;5.30;;;23.40;59.90;;;;;;216366;1290;22582;-59
2022/05/31 22:19:58;;;;;;;10.80;4.30;;;23.40;59.60;;;;;;216341;1291;23227;-64
2022/05/31 22:25:15;;;;;;;12.60;4.30;;;23.40;59.50;;;;;;216279;1290;22645;-59
2022/05/31 22:30:31;;;;;;;11.30;4.50;;;23.40;59.80;;;;;;216348;1290;22557;-59
2022/05/31 22:35:39;;;;;;;11.10;4.40;;;23.40;60.10;;;;;;216331;1290;25280;-59
2022/05/31 22:40:45;;;;;;;15.20;4.40;;;23.40;60.10;;;;;;216159;1293;24010;-59
2022/05/31 22:45:50;;;;;;;13.50;4.50;;;23.30;59.80;;;;;;216357;1290;25495;-63
2022/05/31 22:50:56;;;;;;;9.50;3.70;;;23.30;60.00;;;;;;216476;1290;25232;-58
2022/05/31 22:56:00;;;;;;;10.50;4.20;;;23.30;59.60;;;;;;216432;1290;22659;-59
2022/05/31 23:01:09;;;;;;;10.70;4.20;;;23.30;60.10;;;;;;216353;1290;23112;-59
2022/05/31 23:06:18;;;;;;;10.10;4.10;;;23.30;59.80;;;;;;216326;1291;24415;-61
2022/05/31 23:11:23;;;;;;;11.90;4.40;;;23.30;59.60;;;;;;216412;1290;22569;-61
2022/05/31 23:16:34;;;;;;;11.50;4.50;;;23.20;59.40;;;;;;216329;1290;26816;-62
2022/05/31 23:21:45;;;;;;;9.50;4.20;;;23.30;59.40;;;;;;216266;1290;25282;-60
2022/05/31 23:26:51;;;;;;;;;;;23.30;59.30;;;;;;216666;1290;22525;-62
2022/05/31 23:32:03;;;;;;;10.90;4.20;;;23.20;59.30;;;;;;216548;1290;24252;-58
2022/05/31 23:37:07;;;;;;;12.00;3.90;;;23.20;59.10;;;;;;216788;1290;25525;-58
2022/05/31 23:42:11;;;;;;;9.20;4.00;;;23.20;59.10;;;;;;216089;1293;22561;-57
2022/05/31 23:47:15;;;;;;;9.50;4.00;;;23.20;59.20;;;;;;216143;1293;25440;-58
2022/05/31 23:52:18;;;;;;;9.50;3.80;;;23.20;59.10;;;;;;216331;1293;25499;-58
2022/05/31 23:57:22;;;;;;;8.90;4.00;;;23.20;59.20;;;;;;216399;1290;24543;-60
